sensor_id;sensor_type;location;lat;lon;timestamp;temperature;humidity
34406;DHT22;20658;45.630;8.886;2023-02-01T00:01:06;1.40;85.60
34406;DHT22;20658;45.630;8.886;2023-02-01T00:03:41;1.30;85.80
34406;DHT22;20658;45.630;8.886;2023-02-01T00:06:14;1.20;86.10
34406;DHT22;20658;45.630;8.886;2023-02-01T00:08:48;1.20;85.90
34406;DHT22;20658;45.630;8.886;2023-02-01T00:11:22;1.10;86.20
34406;DHT22;20658;45.630;8.886;2023-02-01T00:13:57;1.10;86.00
34406;DHT22;20658;45.630;8.886;2023-02-01T00:16:31;1.10;86.20
34406;DHT22;20658;45.630;8.886;2023-02-01T00:19:07;1.10;86.30
34406;DHT22;20658;45.630;8.886;2023-02-01T00:21:43;1.10;86.30
34406;DHT22;20658;45.630;8.886;2023-02-01T00:24:17;1.10;86.40
34406;DHT22;20658;45.630;8.886;2023-02-01T00:26:50;1.10;86.30
34406;DHT22;20658;45.630;8.886;2023-02-01T00:29:23;1.10;86.40
34406;DHT22;20658;45.630;8.886;2023-02-01T00:31:57;1.10;86.40
34406;DHT22;20658;45.630;8.886;2023-02-01T00:34:32;1.10;86.50
34406;DHT22;20658;45.630;8.886;2023-02-01T00:37:05;1.00;86.40
34406;DHT22;20658;45.630;8.886;2023-02-01T00:39:39;1.00;86.70
34406;DHT22;20658;45.630;8.886;2023-02-01T00:42:12;1.00;86.70
34406;DHT22;20658;45.630;8.886;2023-02-01T00:44:46;1.00;86.60
34406;DHT22;20658;45.630;8.886;2023-02-01T00:47:19;1.00;86.50
34406;DHT22;20658;45.630;8.886;2023-02-01T00:49:49;1.00;86.40
34406;DHT22;20658;45.630;8.886;2023-02-01T00:52:22;0.90;86.50
34406;DHT22;20658;45.630;8.886;2023-02-01T00:54:55;0.90;86.60
34406;DHT22;20658;45.630;8.886;2023-02-01T00:57:28;0.80;86.50
34406;DHT22;20658;45.630;8.886;2023-02-01T01:00:02;0.80;86.50
34406;DHT22;20658;45.630;8.886;2023-02-01T01:02:36;0.80;86.50
34406;DHT22;20658;45.630;8.886;2023-02-01T01:05:11;0.80;86.50
34406;DHT22;20658;45.630;8.886;2023-02-01T01:07:44;0.70;86.50
34406;DHT22;20658;45.630;8.886;2023-02-01T01:10:18;0.80;86.50
34406;DHT22;20658;45.630;8.886;2023-02-01T01:12:51;0.80;86.80
34406;DHT22;20658;45.630;8.886;2023-02-01T01:15:25;0.80;86.40
34406;DHT22;20658;45.630;8.886;2023-02-01T01:17:58;0.80;86.20
34406;DHT22;20658;45.630;8.886;2023-02-01T01:20:36;0.80;85.80
34406;DHT22;20658;45.630;8.886;2023-02-01T01:23:10;0.80;85.90
34406;DHT22;20658;45.630;8.886;2023-02-01T01:25:43;0.80;85.70
34406;DHT22;20658;45.630;8.886;2023-02-01T01:28:17;0.80;85.70
34406;DHT22;20658;45.630;8.886;2023-02-01T01:30:50;0.80;85.80
34406;DHT22;20658;45.630;8.886;2023-02-01T01:33:23;0.70;85.80
34406;DHT22;20658;45.630;8.886;2023-02-01T01:35:58;0.70;86.00
34406;DHT22;20658;45.630;8.886;2023-02-01T01:38:32;0.70;86.00
34406;DHT22;20658;45.630;8.886;2023-02-01T01:41:05;0.70;86.30
34406;DHT22;20658;45.630;8.886;2023-02-01T01:43:51;0.70;86.20
34406;DHT22;20658;45.630;8.886;2023-02-01T01:46:29;0.70;86.00
34406;DHT22;20658;45.630;8.886;2023-02-01T01:49:06;0.70;86.60
34406;DHT22;20658;45.630;8.886;2023-02-01T01:51:47;0.70;86.10
34406;DHT22;20658;45.630;8.886;2023-02-01T01:54:24;0.70;86.30
34406;DHT22;20658;45.630;8.886;2023-02-01T02:00:00;0.60;86.60
34406;DHT22;20658;45.630;8.886;2023-02-01T02:02:41;0.40;86.70
34406;DHT22;20658;45.630;8.886;2023-02-01T02:05:17;0.30;87.20
34406;DHT22;20658;45.630;8.886;2023-02-01T02:07:54;0.30;87.20
34406;DHT22;20658;45.630;8.886;2023-02-01T02:10:31;0.40;87.20
34406;DHT22;20658;45.630;8.886;2023-02-01T02:13:22;0.40;87.00
34406;DHT22;20658;45.630;8.886;2023-02-01T02:16:06;0.30;87.10
34406;DHT22;20658;45.630;8.886;2023-02-01T02:19:01;0.30;86.70
34406;DHT22;20658;45.630;8.886;2023-02-01T02:21:56;0.90;87.00
34406;DHT22;20658;45.630;8.886;2023-02-01T02:28:49;0.30;86.80
34406;DHT22;20658;45.630;8.886;2023-02-01T02:32:03;0.30;86.80
34406;DHT22;20658;45.630;8.886;2023-02-01T02:34:46;0.20;86.70
34406;DHT22;20658;45.630;8.886;2023-02-01T02:37:30;0.20;86.80
34406;DHT22;20658;45.630;8.886;2023-02-01T02:40:15;0.20;86.90
34406;DHT22;20658;45.630;8.886;2023-02-01T02:42:52;0.20;86.40
34406;DHT22;20658;45.630;8.886;2023-02-01T02:45:58;0.50;86.40
34406;DHT22;20658;45.630;8.886;2023-02-01T02:48:58;0.30;86.00
34406;DHT22;20658;45.630;8.886;2023-02-01T02:51:41;0.30;85.40
34406;DHT22;20658;45.630;8.886;2023-02-01T02:54:37;0.30;84.80
34406;DHT22;20658;45.630;8.886;2023-02-01T02:57:20;0.30;84.20
34406;DHT22;20658;45.630;8.886;2023-02-01T03:00:20;0.70;84.50
34406;DHT22;20658;45.630;8.886;2023-02-01T03:03:12;0.30;84.00
34406;DHT22;20658;45.630;8.886;2023-02-01T03:06:04;0.30;84.00
34406;DHT22;20658;45.630;8.886;2023-02-01T03:08:49;0.30;84.20
34406;DHT22;20658;45.630;8.886;2023-02-01T03:11:26;0.20;84.30
34406;DHT22;20658;45.630;8.886;2023-02-01T03:14:21;0.20;84.70
34406;DHT22;20658;45.630;8.886;2023-02-01T03:16:58;0.10;84.70
34406;DHT22;20658;45.630;8.886;2023-02-01T03:19:35;0.20;84.90
34406;DHT22;20658;45.630;8.886;2023-02-01T03:22:12;0.20;84.90
34406;DHT22;20658;45.630;8.886;2023-02-01T03:24:51;0.40;85.00
34406;DHT22;20658;45.630;8.886;2023-02-01T03:27:30;0.20;84.70
34406;DHT22;20658;45.630;8.886;2023-02-01T03:30:09;0.20;83.40
34406;DHT22;20658;45.630;8.886;2023-02-01T03:32:47;0.20;82.60
34406;DHT22;20658;45.630;8.886;2023-02-01T03:35:36;0.20;82.40
34406;DHT22;20658;45.630;8.886;2023-02-01T03:38:19;0.30;83.10
34406;DHT22;20658;45.630;8.886;2023-02-01T03:41:00;0.20;82.90
34406;DHT22;20658;45.630;8.886;2023-02-01T03:43:35;0.30;83.00
34406;DHT22;20658;45.630;8.886;2023-02-01T03:46:17;0.30;82.50
34406;DHT22;20658;45.630;8.886;2023-02-01T03:48:54;0.20;82.20
34406;DHT22;20658;45.630;8.886;2023-02-01T03:51:28;0.20;82.40
34406;DHT22;20658;45.630;8.886;2023-02-01T03:54:04;0.20;82.60
34406;DHT22;20658;45.630;8.886;2023-02-01T03:56:43;0.20;83.00
34406;DHT22;20658;45.630;8.886;2023-02-01T03:59:17;0.20;82.40
34406;DHT22;20658;45.630;8.886;2023-02-01T04:01:51;0.50;82.50
34406;DHT22;20658;45.630;8.886;2023-02-01T04:04:25;0.30;82.20
34406;DHT22;20658;45.630;8.886;2023-02-01T04:06:58;0.30;81.80
34406;DHT22;20658;45.630;8.886;2023-02-01T04:09:32;0.60;82.00
34406;DHT22;20658;45.630;8.886;2023-02-01T04:12:07;0.30;81.80
34406;DHT22;20658;45.630;8.886;2023-02-01T04:14:40;0.30;81.80
34406;DHT22;20658;45.630;8.886;2023-02-01T04:17:13;0.30;82.00
34406;DHT22;20658;45.630;8.886;2023-02-01T04:19:46;0.30;82.10
34406;DHT22;20658;45.630;8.886;2023-02-01T04:22:20;0.30;82.20
34406;DHT22;20658;45.630;8.886;2023-02-01T04:24:53;0.40;82.10
34406;DHT22;20658;45.630;8.886;2023-02-01T04:27:46;0.40;82.40
34406;DHT22;20658;45.630;8.886;2023-02-01T04:30:20;0.50;82.10
34406;DHT22;20658;45.630;8.886;2023-02-01T04:32:53;0.50;81.90
34406;DHT22;20658;45.630;8.886;2023-02-01T04:35:26;0.50;82.20
34406;DHT22;20658;45.630;8.886;2023-02-01T04:38:00;0.50;82.20
34406;DHT22;20658;45.630;8.886;2023-02-01T04:40:33;0.50;81.90
34406;DHT22;20658;45.630;8.886;2023-02-01T04:43:10;0.60;81.60
34406;DHT22;20658;45.630;8.886;2023-02-01T04:45:47;0.60;81.40
34406;DHT22;20658;45.630;8.886;2023-02-01T04:48:21;0.50;82.00
34406;DHT22;20658;45.630;8.886;2023-02-01T04:50:54;0.50;81.90
34406;DHT22;20658;45.630;8.886;2023-02-01T04:53:28;0.50;82.20
34406;DHT22;20658;45.630;8.886;2023-02-01T04:56:06;0.60;82.00
34406;DHT22;20658;45.630;8.886;2023-02-01T04:58:42;0.50;82.00
34406;DHT22;20658;45.630;8.886;2023-02-01T05:01:15;0.50;82.60
34406;DHT22;20658;45.630;8.886;2023-02-01T05:03:49;0.50;82.60
34406;DHT22;20658;45.630;8.886;2023-02-01T05:06:22;0.50;82.60
34406;DHT22;20658;45.630;8.886;2023-02-01T05:08:56;0.50;82.60
34406;DHT22;20658;45.630;8.886;2023-02-01T05:11:29;0.50;82.60
34406;DHT22;20658;45.630;8.886;2023-02-01T05:14:21;0.40;83.40
34406;DHT22;20658;45.630;8.886;2023-02-01T05:16:54;0.40;83.40
34406;DHT22;20658;45.630;8.886;2023-02-01T05:19:28;0.30;83.60
34406;DHT22;20658;45.630;8.886;2023-02-01T05:22:01;0.30;84.70
34406;DHT22;20658;45.630;8.886;2023-02-01T05:24:34;0.20;84.30
34406;DHT22;20658;45.630;8.886;2023-02-01T05:27:08;0.30;84.90
34406;DHT22;20658;45.630;8.886;2023-02-01T05:29:42;0.20;84.70
34406;DHT22;20658;45.630;8.886;2023-02-01T05:32:15;0.20;84.90
34406;DHT22;20658;45.630;8.886;2023-02-01T05:34:49;0.20;85.30
34406;DHT22;20658;45.630;8.886;2023-02-01T05:37:22;0.20;85.20
34406;DHT22;20658;45.630;8.886;2023-02-01T05:39:56;0.20;85.50
34406;DHT22;20658;45.630;8.886;2023-02-01T05:42:29;0.20;85.30
34406;DHT22;20658;45.630;8.886;2023-02-01T05:45:05;0.20;85.00
34406;DHT22;20658;45.630;8.886;2023-02-01T05:47:39;0.20;84.60
34406;DHT22;20658;45.630;8.886;2023-02-01T05:50:12;0.20;84.50
34406;DHT22;20658;45.630;8.886;2023-02-01T05:52:46;0.20;84.40
34406;DHT22;20658;45.630;8.886;2023-02-01T05:55:19;0.30;84.90
34406;DHT22;20658;45.630;8.886;2023-02-01T05:57:52;0.30;85.00
34406;DHT22;20658;45.630;8.886;2023-02-01T06:00:27;0.30;85.00
34406;DHT22;20658;45.630;8.886;2023-02-01T06:03:00;0.20;85.00
34406;DHT22;20658;45.630;8.886;2023-02-01T06:05:34;0.10;85.10
34406;DHT22;20658;45.630;8.886;2023-02-01T06:08:08;0.10;85.40
34406;DHT22;20658;45.630;8.886;2023-02-01T06:10:41;0.10;85.60
34406;DHT22;20658;45.630;8.886;2023-02-01T06:13:15;0.00;85.50
34406;DHT22;20658;45.630;8.886;2023-02-01T06:15:49;0.00;85.70
34406;DHT22;20658;45.630;8.886;2023-02-01T06:18:23;0.00;85.90
34406;DHT22;20658;45.630;8.886;2023-02-01T06:20:57;0.00;85.80
34406;DHT22;20658;45.630;8.886;2023-02-01T06:23:31;-0.10;86.00
34406;DHT22;20658;45.630;8.886;2023-02-01T06:26:06;0.50;86.70
34406;DHT22;20658;45.630;8.886;2023-02-01T06:28:40;-0.10;86.50
34406;DHT22;20658;45.630;8.886;2023-02-01T06:31:15;-0.10;86.50
34406;DHT22;20658;45.630;8.886;2023-02-01T06:33:48;0.30;86.90
34406;DHT22;20658;45.630;8.886;2023-02-01T06:36:21;0.40;86.80
34406;DHT22;20658;45.630;8.886;2023-02-01T06:38:55;-0.10;86.80
34406;DHT22;20658;45.630;8.886;2023-02-01T06:41:30;-0.10;87.00
34406;DHT22;20658;45.630;8.886;2023-02-01T06:44:06;-0.10;87.10
34406;DHT22;20658;45.630;8.886;2023-02-01T06:46:41;-0.10;87.30
34406;DHT22;20658;45.630;8.886;2023-02-01T06:49:14;-0.10;87.40
34406;DHT22;20658;45.630;8.886;2023-02-01T06:51:47;-0.10;87.30
34406;DHT22;20658;45.630;8.886;2023-02-01T06:54:21;-0.10;87.00
34406;DHT22;20658;45.630;8.886;2023-02-01T06:56:54;-0.10;87.00
34406;DHT22;20658;45.630;8.886;2023-02-01T06:59:27;-0.10;86.70
34406;DHT22;20658;45.630;8.886;2023-02-01T07:02:02;-0.10;86.80
34406;DHT22;20658;45.630;8.886;2023-02-01T07:04:35;0.40;86.90
34406;DHT22;20658;45.630;8.886;2023-02-01T07:07:09;0.30;86.80
34406;DHT22;20658;45.630;8.886;2023-02-01T07:09:43;0.00;86.30
34406;DHT22;20658;45.630;8.886;2023-02-01T07:12:17;0.10;86.00
34406;DHT22;20658;45.630;8.886;2023-02-01T07:14:51;0.10;85.80
34406;DHT22;20658;45.630;8.886;2023-02-01T07:17:26;0.10;85.80
34406;DHT22;20658;45.630;8.886;2023-02-01T07:20:01;0.20;85.70
34406;DHT22;20658;45.630;8.886;2023-02-01T07:22:34;0.20;84.80
34406;DHT22;20658;45.630;8.886;2023-02-01T07:25:08;0.20;84.50
34406;DHT22;20658;45.630;8.886;2023-02-01T07:27:41;0.30;84.70
34406;DHT22;20658;45.630;8.886;2023-02-01T07:30:14;0.30;84.50
34406;DHT22;20658;45.630;8.886;2023-02-01T07:32:49;0.40;84.00
34406;DHT22;20658;45.630;8.886;2023-02-01T07:35:23;0.40;83.80
34406;DHT22;20658;45.630;8.886;2023-02-01T07:37:57;0.50;83.80
34406;DHT22;20658;45.630;8.886;2023-02-01T07:40:30;0.60;83.70
34406;DHT22;20658;45.630;8.886;2023-02-01T07:43:04;0.70;82.80
34406;DHT22;20658;45.630;8.886;2023-02-01T07:45:39;1.30;82.90
34406;DHT22;20658;45.630;8.886;2023-02-01T07:48:14;0.90;81.60
34406;DHT22;20658;45.630;8.886;2023-02-01T07:50:47;1.00;81.20
34406;DHT22;20658;45.630;8.886;2023-02-01T07:53:20;1.20;80.50
34406;DHT22;20658;45.630;8.886;2023-02-01T07:55:54;1.20;79.60
34406;DHT22;20658;45.630;8.886;2023-02-01T07:58:28;1.40;79.10
34406;DHT22;20658;45.630;8.886;2023-02-01T08:01:02;1.50;78.60
34406;DHT22;20658;45.630;8.886;2023-02-01T08:03:58;1.60;78.20
34406;DHT22;20658;45.630;8.886;2023-02-01T08:06:33;1.70;77.50
34406;DHT22;20658;45.630;8.886;2023-02-01T08:09:07;1.90;77.20
34406;DHT22;20658;45.630;8.886;2023-02-01T08:11:42;2.00;76.60
34406;DHT22;20658;45.630;8.886;2023-02-01T08:14:15;2.20;76.30
34406;DHT22;20658;45.630;8.886;2023-02-01T08:16:49;2.60;76.40
34406;DHT22;20658;45.630;8.886;2023-02-01T08:19:23;2.40;75.50
34406;DHT22;20658;45.630;8.886;2023-02-01T08:21:57;2.60;74.50
34406;DHT22;20658;45.630;8.886;2023-02-01T08:24:30;2.70;74.00
34406;DHT22;20658;45.630;8.886;2023-02-01T08:27:04;2.80;73.70
34406;DHT22;20658;45.630;8.886;2023-02-01T08:29:37;3.00;73.30
34406;DHT22;20658;45.630;8.886;2023-02-01T08:32:11;3.10;72.20
34406;DHT22;20658;45.630;8.886;2023-02-01T08:34:45;3.30;70.70
34406;DHT22;20658;45.630;8.886;2023-02-01T08:37:19;3.40;70.30
34406;DHT22;20658;45.630;8.886;2023-02-01T08:39:54;3.60;69.20
34406;DHT22;20658;45.630;8.886;2023-02-01T08:42:27;3.80;68.70
34406;DHT22;20658;45.630;8.886;2023-02-01T08:45:18;3.90;68.20
34406;DHT22;20658;45.630;8.886;2023-02-01T08:47:52;4.10;68.40
34406;DHT22;20658;45.630;8.886;2023-02-01T08:50:27;4.30;66.90
34406;DHT22;20658;45.630;8.886;2023-02-01T08:53:01;4.50;66.50
34406;DHT22;20658;45.630;8.886;2023-02-01T08:55:34;4.60;65.90
34406;DHT22;20658;45.630;8.886;2023-02-01T08:58:07;4.70;65.60
34406;DHT22;20658;45.630;8.886;2023-02-01T09:00:40;4.90;64.70
34406;DHT22;20658;45.630;8.886;2023-02-01T09:03:14;5.10;64.20
34406;DHT22;20658;45.630;8.886;2023-02-01T09:05:49;5.30;64.10
34406;DHT22;20658;45.630;8.886;2023-02-01T09:08:22;5.40;63.20
34406;DHT22;20658;45.630;8.886;2023-02-01T09:10:59;5.60;62.90
34406;DHT22;20658;45.630;8.886;2023-02-01T09:13:33;5.70;62.80
34406;DHT22;20658;45.630;8.886;2023-02-01T09:16:07;5.80;62.30
34406;DHT22;20658;45.630;8.886;2023-02-01T09:18:40;5.90;62.50
34406;DHT22;20658;45.630;8.886;2023-02-01T09:21:15;6.10;61.60
34406;DHT22;20658;45.630;8.886;2023-02-01T09:23:50;6.30;60.70
34406;DHT22;20658;45.630;8.886;2023-02-01T09:26:23;6.50;60.30
34406;DHT22;20658;45.630;8.886;2023-02-01T09:28:57;6.60;59.10
34406;DHT22;20658;45.630;8.886;2023-02-01T09:31:31;6.80;58.40
34406;DHT22;20658;45.630;8.886;2023-02-01T09:34:05;7.00;56.90
34406;DHT22;20658;45.630;8.886;2023-02-01T09:36:40;7.20;56.60
34406;DHT22;20658;45.630;8.886;2023-02-01T09:39:13;7.40;56.30
34406;DHT22;20658;45.630;8.886;2023-02-01T09:41:55;7.50;54.20
34406;DHT22;20658;45.630;8.886;2023-02-01T09:44:48;7.60;51.60
34406;DHT22;20658;45.630;8.886;2023-02-01T09:47:26;7.80;50.60
34406;DHT22;20658;45.630;8.886;2023-02-01T09:50:04;7.90;50.20
34406;DHT22;20658;45.630;8.886;2023-02-01T09:52:45;8.10;49.60
34406;DHT22;20658;45.630;8.886;2023-02-01T09:55:24;8.10;48.00
34406;DHT22;20658;45.630;8.886;2023-02-01T09:58:04;8.20;47.40
34406;DHT22;20658;45.630;8.886;2023-02-01T10:00:39;8.30;47.10
34406;DHT22;20658;45.630;8.886;2023-02-01T10:03:14;8.40;47.60
34406;DHT22;20658;45.630;8.886;2023-02-01T10:06:10;8.50;47.80
34406;DHT22;20658;45.630;8.886;2023-02-01T10:09:10;8.70;47.80
34406;DHT22;20658;45.630;8.886;2023-02-01T10:15:35;9.00;47.80
34406;DHT22;20658;45.630;8.886;2023-02-01T10:18:43;9.10;48.50
34406;DHT22;20658;45.630;8.886;2023-02-01T10:21:36;9.20;49.40
34406;DHT22;20658;45.630;8.886;2023-02-01T10:24:28;9.40;49.90
34406;DHT22;20658;45.630;8.886;2023-02-01T10:27:15;9.60;50.60
34406;DHT22;20658;45.630;8.886;2023-02-01T10:29:54;9.80;51.50
34406;DHT22;20658;45.630;8.886;2023-02-01T10:32:31;10.00;51.20
34406;DHT22;20658;45.630;8.886;2023-02-01T10:35:12;10.00;51.50
34406;DHT22;20658;45.630;8.886;2023-02-01T10:37:48;10.10;51.20
34406;DHT22;20658;45.630;8.886;2023-02-01T10:40:25;10.10;53.00
34406;DHT22;20658;45.630;8.886;2023-02-01T10:42:57;10.20;52.90
34406;DHT22;20658;45.630;8.886;2023-02-01T10:45:33;10.20;52.90
34406;DHT22;20658;45.630;8.886;2023-02-01T10:48:08;10.40;53.90
34406;DHT22;20658;45.630;8.886;2023-02-01T10:50:48;10.50;54.60
34406;DHT22;20658;45.630;8.886;2023-02-01T10:53:28;10.60;55.30
34406;DHT22;20658;45.630;8.886;2023-02-01T10:56:08;10.60;55.70
34406;DHT22;20658;45.630;8.886;2023-02-01T10:58:45;10.60;57.30
34406;DHT22;20658;45.630;8.886;2023-02-01T11:01:21;10.80;57.90
34406;DHT22;20658;45.630;8.886;2023-02-01T11:03:57;10.80;57.80
34406;DHT22;20658;45.630;8.886;2023-02-01T11:06:33;10.80;58.70
34406;DHT22;20658;45.630;8.886;2023-02-01T11:09:17;10.90;58.90
34406;DHT22;20658;45.630;8.886;2023-02-01T11:11:57;10.90;58.80
34406;DHT22;20658;45.630;8.886;2023-02-01T11:14:37;11.00;58.80
34406;DHT22;20658;45.630;8.886;2023-02-01T11:17:25;11.30;59.00
34406;DHT22;20658;45.630;8.886;2023-02-01T11:20:02;11.30;58.00
34406;DHT22;20658;45.630;8.886;2023-02-01T11:22:37;11.30;57.90
34406;DHT22;20658;45.630;8.886;2023-02-01T11:25:14;11.40;58.20
34406;DHT22;20658;45.630;8.886;2023-02-01T11:27:52;11.50;57.50
34406;DHT22;20658;45.630;8.886;2023-02-01T11:30:33;11.70;56.90
34406;DHT22;20658;45.630;8.886;2023-02-01T11:33:13;11.70;56.00
34406;DHT22;20658;45.630;8.886;2023-02-01T11:35:49;11.80;56.60
34406;DHT22;20658;45.630;8.886;2023-02-01T11:38:27;11.90;56.00
34406;DHT22;20658;45.630;8.886;2023-02-01T11:41:12;12.10;55.60
34406;DHT22;20658;45.630;8.886;2023-02-01T11:43:55;12.10;54.80
34406;DHT22;20658;45.630;8.886;2023-02-01T11:46:32;12.20;55.20
34406;DHT22;20658;45.630;8.886;2023-02-01T11:49:25;12.30;53.40
34406;DHT22;20658;45.630;8.886;2023-02-01T11:52:09;12.20;53.60
34406;DHT22;20658;45.630;8.886;2023-02-01T11:54:56;12.20;53.90
34406;DHT22;20658;45.630;8.886;2023-02-01T11:57:50;12.30;54.00
34406;DHT22;20658;45.630;8.886;2023-02-01T12:00:42;12.40;53.70
34406;DHT22;20658;45.630;8.886;2023-02-01T12:03:50;12.50;53.90
34406;DHT22;20658;45.630;8.886;2023-02-01T12:06:48;12.60;53.40
34406;DHT22;20658;45.630;8.886;2023-02-01T12:09:34;12.50;52.30
34406;DHT22;20658;45.630;8.886;2023-02-01T12:12:19;12.50;52.70
34406;DHT22;20658;45.630;8.886;2023-02-01T12:15:14;12.60;53.00
34406;DHT22;20658;45.630;8.886;2023-02-01T12:21:31;12.70;51.90
34406;DHT22;20658;45.630;8.886;2023-02-01T12:24:20;12.70;51.70
34406;DHT22;20658;45.630;8.886;2023-02-01T12:27:13;12.70;50.60
34406;DHT22;20658;45.630;8.886;2023-02-01T12:30:17;13.20;49.70
34406;DHT22;20658;45.630;8.886;2023-02-01T12:33:08;12.80;49.20
34406;DHT22;20658;45.630;8.886;2023-02-01T12:36:01;12.60;48.10
34406;DHT22;20658;45.630;8.886;2023-02-01T12:38:51;12.70;47.70
34406;DHT22;20658;45.630;8.886;2023-02-01T12:41:47;12.80;48.10
34406;DHT22;20658;45.630;8.886;2023-02-01T12:44:35;13.00;47.60
34406;DHT22;20658;45.630;8.886;2023-02-01T12:47:17;13.10;46.70
34406;DHT22;20658;45.630;8.886;2023-02-01T12:49:59;13.40;45.60
34406;DHT22;20658;45.630;8.886;2023-02-01T12:52:38;13.00;45.60
34406;DHT22;20658;45.630;8.886;2023-02-01T12:55:20;13.00;46.20
34406;DHT22;20658;45.630;8.886;2023-02-01T12:58:00;13.10;45.40
34406;DHT22;20658;45.630;8.886;2023-02-01T13:00:39;12.90;44.20
34406;DHT22;20658;45.630;8.886;2023-02-01T13:03:25;13.10;45.00
34406;DHT22;20658;45.630;8.886;2023-02-01T13:06:07;13.30;44.80
34406;DHT22;20658;45.630;8.886;2023-02-01T13:08:46;13.20;44.90
34406;DHT22;20658;45.630;8.886;2023-02-01T13:11:26;13.20;43.90
34406;DHT22;20658;45.630;8.886;2023-02-01T13:14:07;13.10;44.00
34406;DHT22;20658;45.630;8.886;2023-02-01T13:16:45;13.20;43.50
34406;DHT22;20658;45.630;8.886;2023-02-01T13:19:44;13.10;42.90
34406;DHT22;20658;45.630;8.886;2023-02-01T13:22:25;13.20;42.10
34406;DHT22;20658;45.630;8.886;2023-02-01T13:25:03;13.20;41.70
34406;DHT22;20658;45.630;8.886;2023-02-01T13:27:39;13.20;41.60
34406;DHT22;20658;45.630;8.886;2023-02-01T13:30:16;13.10;41.20
34406;DHT22;20658;45.630;8.886;2023-02-01T13:33:09;13.10;41.30
34406;DHT22;20658;45.630;8.886;2023-02-01T13:36:06;13.20;41.10
34406;DHT22;20658;45.630;8.886;2023-02-01T13:39:33;13.10;40.20
34406;DHT22;20658;45.630;8.886;2023-02-01T13:42:26;13.10;40.50
34406;DHT22;20658;45.630;8.886;2023-02-01T13:45:02;13.30;40.70
34406;DHT22;20658;45.630;8.886;2023-02-01T13:47:40;13.00;41.20
34406;DHT22;20658;45.630;8.886;2023-02-01T13:50:22;13.00;41.70
34406;DHT22;20658;45.630;8.886;2023-02-01T13:52:59;13.10;41.90
34406;DHT22;20658;45.630;8.886;2023-02-01T13:55:36;13.10;41.70
34406;DHT22;20658;45.630;8.886;2023-02-01T13:58:19;13.40;41.80
34406;DHT22;20658;45.630;8.886;2023-02-01T14:04:47;13.10;42.20
34406;DHT22;20658;45.630;8.886;2023-02-01T14:07:22;13.00;42.40
34406;DHT22;20658;45.630;8.886;2023-02-01T14:09:55;12.90;42.90
34406;DHT22;20658;45.630;8.886;2023-02-01T14:12:49;12.90;43.30
34406;DHT22;20658;45.630;8.886;2023-02-01T14:15:25;13.00;43.60
34406;DHT22;20658;45.630;8.886;2023-02-01T14:18:00;13.10;43.00
34406;DHT22;20658;45.630;8.886;2023-02-01T14:20:42;13.40;43.50
34406;DHT22;20658;45.630;8.886;2023-02-01T14:23:28;13.20;44.20
34406;DHT22;20658;45.630;8.886;2023-02-01T14:26:17;13.00;43.60
34406;DHT22;20658;45.630;8.886;2023-02-01T14:29:09;13.00;43.80
34406;DHT22;20658;45.630;8.886;2023-02-01T14:32:01;12.90;44.10
34406;DHT22;20658;45.630;8.886;2023-02-01T14:34:39;12.90;44.30
34406;DHT22;20658;45.630;8.886;2023-02-01T14:37:27;12.80;44.30
34406;DHT22;20658;45.630;8.886;2023-02-01T14:40:04;12.70;44.90
34406;DHT22;20658;45.630;8.886;2023-02-01T14:42:43;12.70;45.10
34406;DHT22;20658;45.630;8.886;2023-02-01T14:45:48;12.80;45.50
34406;DHT22;20658;45.630;8.886;2023-02-01T14:48:44;12.80;45.80
34406;DHT22;20658;45.630;8.886;2023-02-01T14:51:19;12.70;46.20
34406;DHT22;20658;45.630;8.886;2023-02-01T14:53:54;12.70;46.50
34406;DHT22;20658;45.630;8.886;2023-02-01T14:56:28;12.70;46.90
34406;DHT22;20658;45.630;8.886;2023-02-01T14:59:07;12.60;46.60
34406;DHT22;20658;45.630;8.886;2023-02-01T15:01:50;12.60;46.80
34406;DHT22;20658;45.630;8.886;2023-02-01T15:04:27;12.50;47.20
34406;DHT22;20658;45.630;8.886;2023-02-01T15:07:07;12.50;47.70
34406;DHT22;20658;45.630;8.886;2023-02-01T15:09:44;12.50;47.80
34406;DHT22;20658;45.630;8.886;2023-02-01T15:12:23;12.40;48.30
34406;DHT22;20658;45.630;8.886;2023-02-01T15:15:15;12.40;48.50
34406;DHT22;20658;45.630;8.886;2023-02-01T15:17:53;12.40;48.70
34406;DHT22;20658;45.630;8.886;2023-02-01T15:20:28;12.40;48.50
34406;DHT22;20658;45.630;8.886;2023-02-01T15:23:04;12.30;48.90
34406;DHT22;20658;45.630;8.886;2023-02-01T15:25:39;12.20;49.20
34406;DHT22;20658;45.630;8.886;2023-02-01T15:28:13;12.40;50.00
34406;DHT22;20658;45.630;8.886;2023-02-01T15:30:56;12.10;50.40
34406;DHT22;20658;45.630;8.886;2023-02-01T15:33:32;12.10;50.80
34406;DHT22;20658;45.630;8.886;2023-02-01T15:36:18;12.40;51.60
34406;DHT22;20658;45.630;8.886;2023-02-01T15:39:17;11.90;51.60
34406;DHT22;20658;45.630;8.886;2023-02-01T15:41:56;11.90;52.00
34406;DHT22;20658;45.630;8.886;2023-02-01T15:44:36;11.80;52.30
34406;DHT22;20658;45.630;8.886;2023-02-01T15:47:15;11.80;52.70
34406;DHT22;20658;45.630;8.886;2023-02-01T15:49:53;11.70;52.90
34406;DHT22;20658;45.630;8.886;2023-02-01T15:52:36;11.60;52.80
34406;DHT22;20658;45.630;8.886;2023-02-01T15:55:18;11.50;52.60
34406;DHT22;20658;45.630;8.886;2023-02-01T15:57:54;11.50;53.00
34406;DHT22;20658;45.630;8.886;2023-02-01T16:00:29;11.40;53.30
34406;DHT22;20658;45.630;8.886;2023-02-01T16:03:17;11.30;53.00
34406;DHT22;20658;45.630;8.886;2023-02-01T16:06:01;11.40;53.40
34406;DHT22;20658;45.630;8.886;2023-02-01T16:08:36;11.10;54.00
34406;DHT22;20658;45.630;8.886;2023-02-01T16:11:22;11.00;54.20
34406;DHT22;20658;45.630;8.886;2023-02-01T16:14:00;10.90;54.50
34406;DHT22;20658;45.630;8.886;2023-02-01T16:16:33;11.00;54.90
34406;DHT22;20658;45.630;8.886;2023-02-01T16:19:10;10.70;55.40
34406;DHT22;20658;45.630;8.886;2023-02-01T16:21:44;10.70;55.50
34406;DHT22;20658;45.630;8.886;2023-02-01T16:24:18;10.70;55.90
34406;DHT22;20658;45.630;8.886;2023-02-01T16:26:53;10.50;56.20
34406;DHT22;20658;45.630;8.886;2023-02-01T16:29:27;10.40;56.70
34406;DHT22;20658;45.630;8.886;2023-02-01T16:32:00;10.30;57.40
34406;DHT22;20658;45.630;8.886;2023-02-01T16:34:34;10.20;57.60
34406;DHT22;20658;45.630;8.886;2023-02-01T16:37:12;10.40;58.30
34406;DHT22;20658;45.630;8.886;2023-02-01T16:39:46;10.10;58.20
34406;DHT22;20658;45.630;8.886;2023-02-01T16:42:19;10.00;58.20
34406;DHT22;20658;45.630;8.886;2023-02-01T16:44:52;9.90;58.70
34406;DHT22;20658;45.630;8.886;2023-02-01T16:47:26;9.80;59.10
34406;DHT22;20658;45.630;8.886;2023-02-01T16:49:59;9.80;59.50
34406;DHT22;20658;45.630;8.886;2023-02-01T16:52:35;9.70;59.90
34406;DHT22;20658;45.630;8.886;2023-02-01T16:55:12;9.70;60.00
34406;DHT22;20658;45.630;8.886;2023-02-01T16:57:47;9.60;60.20
34406;DHT22;20658;45.630;8.886;2023-02-01T17:00:21;9.40;60.70
34406;DHT22;20658;45.630;8.886;2023-02-01T17:02:56;9.30;61.40
34406;DHT22;20658;45.630;8.886;2023-02-01T17:05:31;9.20;61.60
34406;DHT22;20658;45.630;8.886;2023-02-01T17:08:06;9.20;61.70
34406;DHT22;20658;45.630;8.886;2023-02-01T17:10:41;9.20;62.50